sensor_id;sensor_type;location;lat;lon;timestamp;pressure;altitude;pressure_sealevel;temperature;humidity
15272;BME280;7737;51.578;7.268;2022-09-29T00:00:54;99510.78;;;7.27;100.00
15272;BME280;7737;51.578;7.268;2022-09-29T00:03:21;99515.03;;;7.29;100.00
15272;BME280;7737;51.578;7.268;2022-09-29T00:05:48;99512.28;;;7.15;100.00
15272;BME280;7737;51.578;7.268;2022-09-29T00:08:16;99512.13;;;7.18;100.00
15272;BME280;7737;51.578;7.268;2022-09-29T00:10:43;99519.63;;;7.26;100.00
15272;BME280;7737;51.578;7.268;2022-09-29T00:13:10;99519.78;;;7.07;100.00
15272;BME280;7737;51.578;7.268;2022-09-29T00:15:39;99526.69;;;7.10;100.00
15272;BME280;7737;51.578;7.268;2022-09-29T00:18:05;99528.97;;;7.00;100.00
15272;BME280;7737;51.578;7.268;2022-09-29T00:20:33;99523.34;;;6.91;100.00
15272;BME280;7737;51.578;7.268;2022-09-29T00:23:00;99525.22;;;7.04;100.00
15272;BME280;7737;51.578;7.268;2022-09-29T00:25:27;99528.75;;;6.72;100.00
15272;BME280;7737;51.578;7.268;2022-09-29T00:27:53;99525.13;;;6.57;100.00
15272;BME280;7737;51.578;7.268;2022-09-29T00:30:20;99531.41;;;6.55;100.00
15272;BME280;7737;51.578;7.268;2022-09-29T00:32:48;99528.72;;;6.56;100.00
15272;BME280;7737;51.578;7.268;2022-09-29T00:35:14;99534.25;;;6.85;100.00
15272;BME280;7737;51.578;7.268;2022-09-29T00:37:42;99525.78;;;6.78;100.00
15272;BME280;7737;51.578;7.268;2022-09-29T00:40:09;99527.78;;;6.90;100.00
15272;BME280;7737;51.578;7.268;2022-09-29T00:42:36;99521.50;;;6.75;100.00
15272;BME280;7737;51.578;7.268;2022-09-29T00:45:17;99525.88;;;6.59;100.00
15272;BME280;7737;51.578;7.268;2022-09-29T00:47:50;99524.56;;;6.68;100.00
15272;BME280;7737;51.578;7.268;2022-09-29T00:50:22;99528.88;;;6.53;100.00
15272;BME280;7737;51.578;7.268;2022-09-29T00:52:53;99527.00;;;6.55;100.00
15272;BME280;7737;51.578;7.268;2022-09-29T00:55:23;99538.81;;;6.31;100.00
15272;BME280;7737;51.578;7.268;2022-09-29T00:57:53;99523.03;;;6.47;100.00
15272;BME280;7737;51.578;7.268;2022-09-29T01:00:22;99532.63;;;6.65;100.00
15272;BME280;7737;51.578;7.268;2022-09-29T01:02:52;99534.16;;;6.53;100.00
15272;BME280;7737;51.578;7.268;2022-09-29T01:05:25;99529.22;;;6.63;100.00
15272;BME280;7737;51.578;7.268;2022-09-29T01:07:53;99527.28;;;6.66;100.00
15272;BME280;7737;51.578;7.268;2022-09-29T01:10:20;99528.59;;;6.75;100.00
15272;BME280;7737;51.578;7.268;2022-09-29T01:12:47;99526.72;;;6.77;100.00
15272;BME280;7737;51.578;7.268;2022-09-29T01:15:17;99517.78;;;6.80;100.00
15272;BME280;7737;51.578;7.268;2022-09-29T01:17:45;99524.59;;;6.84;100.00
15272;BME280;7737;51.578;7.268;2022-09-29T01:20:15;99529.97;;;6.82;100.00
15272;BME280;7737;51.578;7.268;2022-09-29T01:23:08;99524.19;;;6.91;100.00
15272;BME280;7737;51.578;7.268;2022-09-29T01:28:47;99529.66;;;6.88;100.00
15272;BME280;7737;51.578;7.268;2022-09-29T01:31:27;99528.69;;;6.89;100.00
15272;BME280;7737;51.578;7.268;2022-09-29T01:34:04;99533.06;;;6.90;100.00
15272;BME280;7737;51.578;7.268;2022-09-29T01:36:43;99532.53;;;6.84;100.00
15272;BME280;7737;51.578;7.268;2022-09-29T01:39:18;99530.03;;;6.81;100.00
15272;BME280;7737;51.578;7.268;2022-09-29T01:41:54;99530.13;;;6.79;100.00
15272;BME280;7737;51.578;7.268;2022-09-29T01:44:25;99526.63;;;6.79;100.00
15272;BME280;7737;51.578;7.268;2022-09-29T01:46:59;99533.69;;;6.78;100.00
15272;BME280;7737;51.578;7.268;2022-09-29T01:49:30;99533.19;;;6.71;100.00
15272;BME280;7737;51.578;7.268;2022-09-29T01:52:00;99530.94;;;6.64;100.00
15272;BME280;7737;51.578;7.268;2022-09-29T01:54:32;99537.66;;;6.54;100.00
15272;BME280;7737;51.578;7.268;2022-09-29T01:57:05;99533.91;;;6.58;100.00
15272;BME280;7737;51.578;7.268;2022-09-29T01:59:39;99548.66;;;6.45;100.00
15272;BME280;7737;51.578;7.268;2022-09-29T02:02:12;99537.88;;;6.49;100.00
15272;BME280;7737;51.578;7.268;2022-09-29T02:04:46;99542.31;;;6.32;100.00
15272;BME280;7737;51.578;7.268;2022-09-29T02:07:18;99536.19;;;6.14;100.00
15272;BME280;7737;51.578;7.268;2022-09-29T02:09:49;99544.03;;;6.33;100.00
15272;BME280;7737;51.578;7.268;2022-09-29T02:12:21;99536.44;;;6.27;100.00
15272;BME280;7737;51.578;7.268;2022-09-29T02:14:51;99536.63;;;6.39;100.00
15272;BME280;7737;51.578;7.268;2022-09-29T02:17:23;99541.28;;;6.17;100.00
15272;BME280;7737;51.578;7.268;2022-09-29T02:19:52;99543.31;;;6.29;100.00
15272;BME280;7737;51.578;7.268;2022-09-29T02:22:19;99535.41;;;6.29;100.00
15272;BME280;7737;51.578;7.268;2022-09-29T02:24:47;99542.56;;;6.27;100.00
15272;BME280;7737;51.578;7.268;2022-09-29T02:27:15;99544.59;;;6.22;100.00
15272;BME280;7737;51.578;7.268;2022-09-29T02:29:42;99545.50;;;6.21;100.00
15272;BME280;7737;51.578;7.268;2022-09-29T02:32:09;99540.28;;;6.20;100.00
15272;BME280;7737;51.578;7.268;2022-09-29T02:38:03;99541.28;;;6.17;100.00
15272;BME280;7737;51.578;7.268;2022-09-29T02:40:41;99543.88;;;6.19;100.00
15272;BME280;7737;51.578;7.268;2022-09-29T02:43:23;99545.19;;;6.10;100.00
15272;BME280;7737;51.578;7.268;2022-09-29T02:46:04;99547.06;;;6.08;100.00
15272;BME280;7737;51.578;7.268;2022-09-29T02:48:54;99543.16;;;6.15;100.00
15272;BME280;7737;51.578;7.268;2022-09-29T02:51:27;99540.06;;;6.07;100.00
15272;BME280;7737;51.578;7.268;2022-09-29T02:54:06;99543.22;;;5.96;100.00
15272;BME280;7737;51.578;7.268;2022-09-29T02:56:43;99546.88;;;5.94;100.00
15272;BME280;7737;51.578;7.268;2022-09-29T02:59:14;99547.81;;;5.93;100.00
15272;BME280;7737;51.578;7.268;2022-09-29T03:01:48;99546.56;;;6.17;100.00
15272;BME280;7737;51.578;7.268;2022-09-29T03:04:15;99543.00;;;6.18;100.00
15272;BME280;7737;51.578;7.268;2022-09-29T03:06:42;99542.88;;;6.21;100.00
15272;BME280;7737;51.578;7.268;2022-09-29T03:09:10;99543.31;;;6.12;100.00
15272;BME280;7737;51.578;7.268;2022-09-29T03:11:36;99541.94;;;6.22;100.00
15272;BME280;7737;51.578;7.268;2022-09-29T03:14:03;99541.28;;;6.17;100.00
15272;BME280;7737;51.578;7.268;2022-09-29T03:16:30;99544.78;;;6.18;100.00
15272;BME280;7737;51.578;7.268;2022-09-29T03:18:57;99536.88;;;6.18;100.00
15272;BME280;7737;51.578;7.268;2022-09-29T03:21:24;99541.53;;;6.12;100.00
15272;BME280;7737;51.578;7.268;2022-09-29T03:23:50;99543.94;;;6.17;100.00
15272;BME280;7737;51.578;7.268;2022-09-29T03:26:18;99536.19;;;6.14;100.00
15272;BME280;7737;51.578;7.268;2022-09-29T03:28:45;99532.84;;;6.10;100.00
15272;BME280;7737;51.578;7.268;2022-09-29T03:31:11;99534.16;;;5.85;100.00
15272;BME280;7737;51.578;7.268;2022-09-29T03:33:38;99536.56;;;5.71;100.00
15272;BME280;7737;51.578;7.268;2022-09-29T03:36:05;99531.81;;;5.96;100.00
15272;BME280;7737;51.578;7.268;2022-09-29T03:38:33;99537.69;;;5.84;100.00
15272;BME280;7737;51.578;7.268;2022-09-29T03:41:00;99535.13;;;5.82;100.00
15272;BME280;7737;51.578;7.268;2022-09-29T03:43:28;99536.78;;;5.85;100.00
15272;BME280;7737;51.578;7.268;2022-09-29T03:45:55;99551.09;;;5.79;100.00
15272;BME280;7737;51.578;7.268;2022-09-29T03:48:22;99542.06;;;5.85;100.00
15272;BME280;7737;51.578;7.268;2022-09-29T03:50:51;99545.97;;;5.76;100.00
15272;BME280;7737;51.578;7.268;2022-09-29T03:53:19;99545.41;;;5.70;100.00
15272;BME280;7737;51.578;7.268;2022-09-29T03:55:46;99544.47;;;5.71;100.00
15272;BME280;7737;51.578;7.268;2022-09-29T03:58:13;99538.59;;;5.66;100.00
15272;BME280;7737;51.578;7.268;2022-09-29T04:00:41;99545.53;;;5.67;100.00
15272;BME280;7737;51.578;7.268;2022-09-29T04:03:07;99543.84;;;5.66;100.00
15272;BME280;7737;51.578;7.268;2022-09-29T04:05:34;99549.13;;;5.66;100.00
15272;BME280;7737;51.578;7.268;2022-09-29T04:08:03;99544.72;;;5.66;100.00
15272;BME280;7737;51.578;7.268;2022-09-29T04:10:29;99546.63;;;5.63;100.00
15272;BME280;7737;51.578;7.268;2022-09-29T04:12:56;99550.75;;;5.68;100.00
15272;BME280;7737;51.578;7.268;2022-09-29T04:15:22;99553.16;;;5.73;100.00
15272;BME280;7737;51.578;7.268;2022-09-29T04:17:50;99556.94;;;5.67;100.00
15272;BME280;7737;51.578;7.268;2022-09-29T04:20:16;99554.25;;;5.69;100.00
15272;BME280;7737;51.578;7.268;2022-09-29T04:22:43;99563.38;;;5.62;100.00
15272;BME280;7737;51.578;7.268;2022-09-29T04:25:09;99558.19;;;5.77;100.00
15272;BME280;7737;51.578;7.268;2022-09-29T04:27:36;99557.19;;;5.63;100.00
15272;BME280;7737;51.578;7.268;2022-09-29T04:30:03;99559.94;;;5.60;100.00
15272;BME280;7737;51.578;7.268;2022-09-29T04:32:30;99561.56;;;5.45;100.00
15272;BME280;7737;51.578;7.268;2022-09-29T04:34:58;99565.25;;;5.22;100.00
15272;BME280;7737;51.578;7.268;2022-09-29T04:37:24;99565.88;;;5.46;100.00
15272;BME280;7737;51.578;7.268;2022-09-29T04:39:51;99572.28;;;5.40;100.00
15272;BME280;7737;51.578;7.268;2022-09-29T04:42:18;99577.06;;;5.32;100.00
15272;BME280;7737;51.578;7.268;2022-09-29T04:44:45;99582.50;;;5.29;100.00
15272;BME280;7737;51.578;7.268;2022-09-29T04:47:12;99587.19;;;5.41;100.00
15272;BME280;7737;51.578;7.268;2022-09-29T04:49:39;99580.91;;;5.25;100.00
15272;BME280;7737;51.578;7.268;2022-09-29T04:52:08;99581.78;;;5.26;100.00
15272;BME280;7737;51.578;7.268;2022-09-29T04:54:36;99582.50;;;5.29;100.00
15272;BME280;7737;51.578;7.268;2022-09-29T04:57:02;99590.91;;;5.37;100.00
15272;BME280;7737;51.578;7.268;2022-09-29T04:59:29;99591.53;;;5.42;100.00
15272;BME280;7737;51.578;7.268;2022-09-29T05:01:56;99590.59;;;5.43;100.00
15272;BME280;7737;51.578;7.268;2022-09-29T05:04:22;99595.84;;;5.43;100.00
15272;BME280;7737;51.578;7.268;2022-09-29T05:06:49;99595.97;;;5.03;100.00
15272;BME280;7737;51.578;7.268;2022-09-29T05:09:17;99598.25;;;4.92;100.00
15272;BME280;7737;51.578;7.268;2022-09-29T05:11:43;99600.59;;;4.98;100.00
15272;BME280;7737;51.578;7.268;2022-09-29T05:14:10;99607.00;;;5.11;100.00
15272;BME280;7737;51.578;7.268;2022-09-29T05:16:37;99603.06;;;5.21;100.00
15272;BME280;7737;51.578;7.268;2022-09-29T05:19:03;99613.09;;;5.13;100.00
15272;BME280;7737;51.578;7.268;2022-09-29T05:21:30;99614.91;;;5.11;100.00
15272;BME280;7737;51.578;7.268;2022-09-29T05:23:56;99607.81;;;5.13;100.00
15272;BME280;7737;51.578;7.268;2022-09-29T05:26:24;99611.66;;;5.25;100.00
15272;BME280;7737;51.578;7.268;2022-09-29T05:28:51;99611.75;;;5.23;100.00
15272;BME280;7737;51.578;7.268;2022-09-29T05:31:17;99610.72;;;5.07;100.00
15272;BME280;7737;51.578;7.268;2022-09-29T05:33:44;99620.31;;;4.89;100.00
15272;BME280;7737;51.578;7.268;2022-09-29T05:36:11;99628.44;;;4.63;100.00
15272;BME280;7737;51.578;7.268;2022-09-29T05:38:38;99622.88;;;4.71;100.00
15272;BME280;7737;51.578;7.268;2022-09-29T05:41:05;99628.50;;;4.82;100.00
15272;BME280;7737;51.578;7.268;2022-09-29T05:43:34;99619.16;;;4.95;100.00
15272;BME280;7737;51.578;7.268;2022-09-29T05:46:01;99626.78;;;5.01;100.00
15272;BME280;7737;51.578;7.268;2022-09-29T05:48:28;99632.06;;;5.01;100.00
15272;BME280;7737;51.578;7.268;2022-09-29T05:50:55;99626.41;;;5.10;100.00
15272;BME280;7737;51.578;7.268;2022-09-29T05:53:22;99632.31;;;5.15;100.00
15272;BME280;7737;51.578;7.268;2022-09-29T05:55:49;99635.84;;;5.14;100.00
15272;BME280;7737;51.578;7.268;2022-09-29T05:58:15;99644.63;;;5.15;100.00
15272;BME280;7737;51.578;7.268;2022-09-29T06:00:43;99639.75;;;5.06;100.00
15272;BME280;7737;51.578;7.268;2022-09-29T06:03:10;99642.28;;;4.88;100.00
15272;BME280;7737;51.578;7.268;2022-09-29T06:05:38;99643.78;;;4.74;100.00
15272;BME280;7737;51.578;7.268;2022-09-29T06:08:05;99646.63;;;4.89;100.00
15272;BME280;7737;51.578;7.268;2022-09-29T06:10:32;99642.72;;;4.98;100.00
15272;BME280;7737;51.578;7.268;2022-09-29T06:12:59;99642.75;;;5.17;100.00
15272;BME280;7737;51.578;7.268;2022-09-29T06:15:27;99647.69;;;5.24;100.00
15272;BME280;7737;51.578;7.268;2022-09-29T06:17:56;99643.22;;;5.26;100.00
15272;BME280;7737;51.578;7.268;2022-09-29T06:20:22;99651.66;;;5.14;100.00
15272;BME280;7737;51.578;7.268;2022-09-29T06:22:49;99643.25;;;5.06;100.00
15272;BME280;7737;51.578;7.268;2022-09-29T06:25:18;99649.53;;;5.22;100.00
15272;BME280;7737;51.578;7.268;2022-09-29T06:27:44;99648.53;;;5.25;100.00
15272;BME280;7737;51.578;7.268;2022-09-29T06:30:12;99639.75;;;5.44;100.00
15272;BME280;7737;51.578;7.268;2022-09-29T06:32:38;99652.66;;;5.50;100.00
15272;BME280;7737;51.578;7.268;2022-09-29T06:35:07;99650.56;;;5.57;100.00
15272;BME280;7737;51.578;7.268;2022-09-29T06:37:52;99655.47;;;5.65;100.00
15272;BME280;7737;51.578;7.268;2022-09-29T06:40:20;99657.97;;;5.68;100.00
15272;BME280;7737;51.578;7.268;2022-09-29T06:42:49;99657.09;;;5.48;100.00
15272;BME280;7737;51.578;7.268;2022-09-29T06:45:15;99668.22;;;5.36;100.00
15272;BME280;7737;51.578;7.268;2022-09-29T06:47:43;99667.28;;;5.56;100.00
15272;BME280;7737;51.578;7.268;2022-09-29T06:50:11;99672.66;;;5.73;100.00
15272;BME280;7737;51.578;7.268;2022-09-29T06:52:38;99672.38;;;5.79;100.00
15272;BME280;7737;51.578;7.268;2022-09-29T06:55:05;99678.97;;;5.89;100.00
15272;BME280;7737;51.578;7.268;2022-09-29T06:57:32;99675.22;;;5.93;100.00
15272;BME280;7737;51.578;7.268;2022-09-29T06:59:59;99669.41;;;6.05;100.00
15272;BME280;7737;51.578;7.268;2022-09-29T07:02:25;99679.19;;;6.21;100.00
15272;BME280;7737;51.578;7.268;2022-09-29T07:04:51;99679.41;;;6.35;100.00
15272;BME280;7737;51.578;7.268;2022-09-29T07:07:19;99687.56;;;6.47;100.00
15272;BME280;7737;51.578;7.268;2022-09-29T07:09:46;99685.25;;;6.58;100.00
15272;BME280;7737;51.578;7.268;2022-09-29T07:12:12;99686.41;;;6.70;100.00
15272;BME280;7737;51.578;7.268;2022-09-29T07:14:39;99689.91;;;6.70;100.00
15272;BME280;7737;51.578;7.268;2022-09-29T07:17:05;99688.06;;;7.07;100.00
15272;BME280;7737;51.578;7.268;2022-09-29T07:19:33;99688.94;;;7.23;100.00
15272;BME280;7737;51.578;7.268;2022-09-29T07:21:59;99697.81;;;7.22;100.00
15272;BME280;7737;51.578;7.268;2022-09-29T07:24:27;99699.19;;;7.29;100.00
15272;BME280;7737;51.578;7.268;2022-09-29T07:26:54;99704.88;;;7.39;100.00
15272;BME280;7737;51.578;7.268;2022-09-29T07:29:20;99694.34;;;7.54;100.00
15272;BME280;7737;51.578;7.268;2022-09-29T07:31:47;99700.16;;;7.76;100.00
15272;BME280;7737;51.578;7.268;2022-09-29T07:34:16;99704.00;;;7.86;100.00
15272;BME280;7737;51.578;7.268;2022-09-29T07:36:42;99705.28;;;8.11;100.00
15272;BME280;7737;51.578;7.268;2022-09-29T07:39:09;99699.78;;;8.15;100.00
15272;BME280;7737;51.578;7.268;2022-09-29T07:41:36;99708.19;;;8.22;100.00
15272;BME280;7737;51.578;7.268;2022-09-29T07:44:03;99707.38;;;8.37;100.00
15272;BME280;7737;51.578;7.268;2022-09-29T07:46:30;99711.66;;;8.55;100.00
15272;BME280;7737;51.578;7.268;2022-09-29T07:48:57;99715.19;;;8.70;100.00
15272;BME280;7737;51.578;7.268;2022-09-29T07:51:24;99715.09;;;8.71;100.00
15272;BME280;7737;51.578;7.268;2022-09-29T07:53:50;99715.59;;;9.07;100.00
15272;BME280;7737;51.578;7.268;2022-09-29T07:56:18;99708.94;;;9.00;100.00
15272;BME280;7737;51.578;7.268;2022-09-29T07:58:48;99710.94;;;9.11;100.00
15272;BME280;7737;51.578;7.268;2022-09-29T08:01:15;99720.41;;;9.45;100.00
15272;BME280;7737;51.578;7.268;2022-09-29T08:03:48;99719.19;;;9.50;100.00
15272;BME280;7737;51.578;7.268;2022-09-29T08:06:14;99714.53;;;9.54;100.00
15272;BME280;7737;51.578;7.268;2022-09-29T08:08:41;99721.19;;;9.61;100.00
15272;BME280;7737;51.578;7.268;2022-09-29T08:11:10;99719.09;;;9.66;100.00
15272;BME280;7737;51.578;7.268;2022-09-29T08:13:37;99724.28;;;9.82;100.00
15272;BME280;7737;51.578;7.268;2022-09-29T08:16:07;99721.72;;;9.94;100.00
15272;BME280;7737;51.578;7.268;2022-09-29T08:18:35;99723.63;;;9.92;100.00
15272;BME280;7737;51.578;7.268;2022-09-29T08:21:03;99719.13;;;10.07;100.00
15272;BME280;7737;51.578;7.268;2022-09-29T08:23:33;99723.22;;;10.26;100.00
15272;BME280;7737;51.578;7.268;2022-09-29T08:26:00;99714.66;;;10.35;100.00
15272;BME280;7737;51.578;7.268;2022-09-29T08:28:28;99711.78;;;10.38;100.00
15272;BME280;7737;51.578;7.268;2022-09-29T08:30:55;99715.63;;;10.61;100.00
15272;BME280;7737;51.578;7.268;2022-09-29T08:33:23;99722.91;;;10.72;100.00
15272;BME280;7737;51.578;7.268;2022-09-29T08:35:54;99721.56;;;10.65;100.00
15272;BME280;7737;51.578;7.268;2022-09-29T08:38:21;99718.31;;;10.74;100.00
15272;BME280;7737;51.578;7.268;2022-09-29T08:40:47;99715.47;;;10.77;100.00
15272;BME280;7737;51.578;7.268;2022-09-29T08:43:18;99722.47;;;10.78;100.00
15272;BME280;7737;51.578;7.268;2022-09-29T08:45:54;99717.41;;;10.87;100.00
15272;BME280;7737;51.578;7.268;2022-09-29T08:48:27;99721.38;;;11.07;100.00
15272;BME280;7737;51.578;7.268;2022-09-29T08:50:56;99722.16;;;11.09;100.00
15272;BME280;7737;51.578;7.268;2022-09-29T08:53:25;99720.03;;;11.39;100.00
15272;BME280;7737;51.578;7.268;2022-09-29T08:55:55;99714.38;;;11.31;100.00
15272;BME280;7737;51.578;7.268;2022-09-29T08:58:22;99719.75;;;11.56;100.00
15272;BME280;7737;51.578;7.268;2022-09-29T09:00:55;99723.69;;;11.38;100.00
15272;BME280;7737;51.578;7.268;2022-09-29T09:03:50;99716.44;;;11.53;100.00
15272;BME280;7737;51.578;7.268;2022-09-29T09:06:26;99707.72;;;11.38;100.00
15272;BME280;7737;51.578;7.268;2022-09-29T09:09:15;99712.91;;;11.40;100.00
15272;BME280;7737;51.578;7.268;2022-09-29T09:11:53;99708.13;;;11.57;100.00
15272;BME280;7737;51.578;7.268;2022-09-29T09:14:33;99710.59;;;11.73;100.00
15272;BME280;7737;51.578;7.268;2022-09-29T09:17:15;99713.03;;;11.76;100.00
15272;BME280;7737;51.578;7.268;2022-09-29T09:20:03;99706.66;;;11.79;100.00
15272;BME280;7737;51.578;7.268;2022-09-29T09:22:45;99707.50;;;11.67;100.00
15272;BME280;7737;51.578;7.268;2022-09-29T09:25:20;99706.44;;;11.69;100.00
15272;BME280;7737;51.578;7.268;2022-09-29T09:27:59;99706.19;;;11.97;100.00
15272;BME280;7737;51.578;7.268;2022-09-29T09:30:33;99702.81;;;11.83;100.00
15272;BME280;7737;51.578;7.268;2022-09-29T09:33:07;99704.91;;;12.03;100.00
15272;BME280;7737;51.578;7.268;2022-09-29T09:35:42;99706.63;;;12.04;100.00
15272;BME280;7737;51.578;7.268;2022-09-29T09:38:14;99703.75;;;12.07;100.00
15272;BME280;7737;51.578;7.268;2022-09-29T09:40:45;99705.38;;;12.20;100.00
15272;BME280;7737;51.578;7.268;2022-09-29T09:43:15;99701.91;;;12.07;100.00
15272;BME280;7737;51.578;7.268;2022-09-29T09:45:47;99701.22;;;12.29;100.00
15272;BME280;7737;51.578;7.268;2022-09-29T09:48:18;99701.81;;;12.09;100.00
15272;BME280;7737;51.578;7.268;2022-09-29T09:50:48;99700.91;;;12.21;100.00
15272;BME280;7737;51.578;7.268;2022-09-29T09:53:21;99702.50;;;12.23;100.00
15272;BME280;7737;51.578;7.268;2022-09-29T09:56:00;99700.34;;;12.29;100.00
15272;BME280;7737;51.578;7.268;2022-09-29T09:58:52;99696.91;;;12.39;100.00
15272;BME280;7737;51.578;7.268;2022-09-29T10:01:24;99691.81;;;12.60;100.00
15272;BME280;7737;51.578;7.268;2022-09-29T10:03:51;99693.66;;;12.94;100.00
15272;BME280;7737;51.578;7.268;2022-09-29T10:06:19;99688.09;;;13.21;100.00
15272;BME280;7737;51.578;7.268;2022-09-29T10:08:46;99689.34;;;13.04;100.00
15272;BME280;7737;51.578;7.268;2022-09-29T10:11:22;99688.91;;;13.10;100.00
15272;BME280;7737;51.578;7.268;2022-09-29T10:13:56;99687.19;;;13.55;100.00
15272;BME280;7737;51.578;7.268;2022-09-29T10:16:27;99689.97;;;13.76;100.00
15272;BME280;7737;51.578;7.268;2022-09-29T10:18:54;99678.69;;;13.83;100.00
15272;BME280;7737;51.578;7.268;2022-09-29T10:21:34;99678.91;;;13.58;100.00
15272;BME280;7737;51.578;7.268;2022-09-29T10:24:02;99675.28;;;13.81;100.00
15272;BME280;7737;51.578;7.268;2022-09-29T10:26:33;99671.75;;;13.92;100.00
15272;BME280;7737;51.578;7.268;2022-09-29T10:29:03;99678.66;;;13.61;100.00
15272;BME280;7737;51.578;7.268;2022-09-29T10:31:41;99692.00;;;13.39;100.00
15272;BME280;7737;51.578;7.268;2022-09-29T10:34:14;99685.41;;;13.21;100.00
15272;BME280;7737;51.578;7.268;2022-09-29T10:36:50;99677.69;;;13.51;100.00
15272;BME280;7737;51.578;7.268;2022-09-29T10:39:30;99682.16;;;13.51;100.00
15272;BME280;7737;51.578;7.268;2022-09-29T10:41:56;99666.53;;;13.79;100.00
15272;BME280;7737;51.578;7.268;2022-09-29T10:44:29;99675.00;;;13.95;100.00
15272;BME280;7737;51.578;7.268;2022-09-29T10:46:56;99660.44;;;14.11;100.00
15272;BME280;7737;51.578;7.268;2022-09-29T10:49:24;99675.72;;;14.20;100.00
15272;BME280;7737;51.578;7.268;2022-09-29T10:51:57;99673.91;;;14.09;100.00
15272;BME280;7737;51.578;7.268;2022-09-29T10:54:26;99661.34;;;14.43;100.00
15272;BME280;7737;51.578;7.268;2022-09-29T10:56:54;99662.38;;;14.62;100.00
15272;BME280;7737;51.578;7.268;2022-09-29T10:59:22;99666.63;;;14.33;100.00
15272;BME280;7737;51.578;7.268;2022-09-29T11:01:52;99669.19;;;14.13;100.00
15272;BME280;7737;51.578;7.268;2022-09-29T11:04:21;99686.19;;;14.00;100.00
15272;BME280;7737;51.578;7.268;2022-09-29T11:06:50;99671.84;;;14.01;100.00
15272;BME280;7737;51.578;7.268;2022-09-29T11:09:36;99673.09;;;13.75;100.00
15272;BME280;7737;51.578;7.268;2022-09-29T11:12:04;99687.16;;;13.88;100.00
15272;BME280;7737;51.578;7.268;2022-09-29T11:14:39;99690.59;;;13.68;100.00
15272;BME280;7737;51.578;7.268;2022-09-29T11:17:20;99692.03;;;13.83;100.00
15272;BME280;7737;51.578;7.268;2022-09-29T11:19:47;99691.06;;;13.84;100.00
15272;BME280;7737;51.578;7.268;2022-09-29T11:22:41;99700.78;;;14.08;100.00
15272;BME280;7737;51.578;7.268;2022-09-29T11:25:43;99700.41;;;14.12;100.00
15272;BME280;7737;51.578;7.268;2022-09-29T11:28:23;99693.31;;;14.22;100.00
15272;BME280;7737;51.578;7.268;2022-09-29T11:31:04;99692.69;;;14.30;100.00
15272;BME280;7737;51.578;7.268;2022-09-29T11:33:41;99699.53;;;14.23;100.00
15272;BME280;7737;51.578;7.268;2022-09-29T11:36:21;99686.97;;;14.56;100.00
15272;BME280;7737;51.578;7.268;2022-09-29T11:39:01;99680.56;;;14.48;100.00
15272;BME280;7737;51.578;7.268;2022-09-29T11:41:45;99687.09;;;14.55;100.00
15272;BME280;7737;51.578;7.268;2022-09-29T11:44:28;99684.44;;;14.22;100.00
15272;BME280;7737;51.578;7.268;2022-09-29T11:47:07;99690.97;;;14.62;100.00
15272;BME280;7737;51.578;7.268;2022-09-29T11:49:42;99664.09;;;14.95;100.00
15272;BME280;7737;51.578;7.268;2022-09-29T11:52:31;99669.09;;;14.57;100.00
15272;BME280;7737;51.578;7.268;2022-09-29T11:55:18;99690.28;;;14.38;100.00
15272;BME280;7737;51.578;7.268;2022-09-29T11:58:00;99693.66;;;14.51;100.00
15272;BME280;7737;51.578;7.268;2022-09-29T12:00:40;99683.00;;;14.29;100.00
15272;BME280;7737;51.578;7.268;2022-09-29T12:03:22;99682.50;;;14.46;100.00
15272;BME280;7737;51.578;7.268;2022-09-29T12:06:03;99683.94;;;14.61;100.00
15272;BME280;7737;51.578;7.268;2022-09-29T12:08:45;99676.22;;;14.99;100.00
15272;BME280;7737;51.578;7.268;2022-09-29T12:11:20;99665.81;;;14.85;100.00
15272;BME280;7737;51.578;7.268;2022-09-29T12:13:54;99654.19;;;14.96;100.00
15272;BME280;7737;51.578;7.268;2022-09-29T12:16:27;99640.50;;;14.69;100.00
15272;BME280;7737;51.578;7.268;2022-09-29T12:18:58;99637.63;;;14.81;100.00
15272;BME280;7737;51.578;7.268;2022-09-29T12:21:32;99652.66;;;15.55;100.00
15272;BME280;7737;51.578;7.268;2022-09-29T12:24:03;99650.22;;;15.52;100.00
15272;BME280;7737;51.578;7.268;2022-09-29T12:26:32;99647.59;;;15.92;100.00
15272;BME280;7737;51.578;7.268;2022-09-29T12:29:03;99643.25;;;16.01;100.00
15272;BME280;7737;51.578;7.268;2022-09-29T12:31:33;99640.38;;;15.53;100.00
15272;BME280;7737;51.578;7.268;2022-09-29T12:34:04;99636.19;;;15.39;100.00
15272;BME280;7737;51.578;7.268;2022-09-29T12:36:40;99638.38;;;15.24;100.00
15272;BME280;7737;51.578;7.268;2022-09-29T12:39:37;99647.31;;;15.14;100.00
15272;BME280;7737;51.578;7.268;2022-09-29T12:42:16;99637.72;;;15.93;100.00
15272;BME280;7737;51.578;7.268;2022-09-29T12:44:51;99633.66;;;15.68;100.00
15272;BME280;7737;51.578;7.268;2022-09-29T12:47:23;99633.47;;;15.30;100.00
15272;BME280;7737;51.578;7.268;2022-09-29T12:50:01;99641.66;;;15.17;100.00
15272;BME280;7737;51.578;7.268;2022-09-29T12:52:35;99627.41;;;15.58;100.00
15272;BME280;7737;51.578;7.268;2022-09-29T12:55:09;99632.28;;;16.13;100.00
15272;BME280;7737;51.578;7.268;2022-09-29T12:57:43;99609.84;;;16.24;100.00
15272;BME280;7737;51.578;7.268;2022-09-29T13:00:15;99598.19;;;16.44;99.43
15272;BME280;7737;51.578;7.268;2022-09-29T13:03:12;99593.09;;;16.89;96.62
15272;BME280;7737;51.578;7.268;2022-09-29T13:09:07;99634.44;;;15.89;100.00
15272;BME280;7737;51.578;7.268;2022-09-29T13:12:05;99626.50;;;15.78;100.00
15272;BME280;7737;51.578;7.268;2022-09-29T13:14:55;99614.38;;;15.74;98.38
15272;BME280;7737;51.578;7.268;2022-09-29T13:17:37;99599.94;;;15.56;93.31
15272;BME280;7737;51.578;7.268;2022-09-29T13:20:41;99612.66;;;15.63;94.53
15272;BME280;7737;51.578;7.268;2022-09-29T13:23:33;99625.41;;;15.50;95.91
15272;BME280;7737;51.578;7.268;2022-09-29T13:26:15;99638.06;;;15.69;97.80
15272;BME280;7737;51.578;7.268;2022-09-29T13:28:47;99629.22;;;15.48;96.75
15272;BME280;7737;51.578;7.268;2022-09-29T13:31:17;99625.94;;;15.23;96.86
15272;BME280;7737;51.578;7.268;2022-09-29T13:33:50;99623.84;;;15.48;96.30
15272;BME280;7737;51.578;7.268;2022-09-29T13:36:22;99656.00;;;15.48;100.00
15272;BME280;7737;51.578;7.268;2022-09-29T13:38:53;99650.16;;;15.43;100.00